createdAt,value
2023-02-16T00:00:31.548Z,117.60
2023-02-16T00:03:20.568Z,119.70
2023-02-16T00:05:49.009Z,123.80
2023-02-16T00:08:27.427Z,124.40
2023-02-16T00:11:19.751Z,126.00
2023-02-16T00:13:56.847Z,134.80
2023-02-16T00:16:33.174Z,127.60
2023-02-16T00:19:03.057Z,129.20
2023-02-16T00:21:30.111Z,132.60
2023-02-16T00:23:57.452Z,137.30
2023-02-16T00:26:45.487Z,142.50
2023-02-16T00:29:16.633Z,126.10
2023-02-16T00:31:43.768Z,134.30
2023-02-16T00:34:26.131Z,138.90
2023-02-16T00:36:53.905Z,130.50
2023-02-16T00:39:34.342Z,133.70
2023-02-16T00:42:05.117Z,129.40
2023-02-16T00:44:37.713Z,123.40
2023-02-16T00:47:12.059Z,121.80
2023-02-16T00:49:44.909Z,124.20
2023-02-16T00:52:30.906Z,120.00
2023-02-16T00:55:02.924Z,128.80
2023-02-16T00:57:34.075Z,125.10
2023-02-16T01:00:06.482Z,124.70
2023-02-16T01:02:36.610Z,117.30
2023-02-16T01:08:00.528Z,124.60
2023-02-16T01:11:06.832Z,126.80
2023-02-16T01:13:48.084Z,125.20
2023-02-16T01:16:20.924Z,121.40
2023-02-16T01:18:55.940Z,122.60
2023-02-16T01:21:33.205Z,130.70
2023-02-16T01:24:20.379Z,125.90
2023-02-16T01:27:00.798Z,126.40
2023-02-16T01:29:30.269Z,130.40
2023-02-16T01:32:02.378Z,126.70
2023-02-16T01:34:29.610Z,122.60
2023-02-16T01:36:58.411Z,127.00
2023-02-16T01:39:25.600Z,129.90
2023-02-16T01:42:04.279Z,125.30
2023-02-16T01:44:35.552Z,136.10
2023-02-16T01:47:24.720Z,135.00
2023-02-16T01:49:51.989Z,138.10
2023-02-16T01:52:31.360Z,128.10
2023-02-16T01:55:08.157Z,126.00
2023-02-16T01:57:40.150Z,129.70
2023-02-16T02:00:30.595Z,131.60
2023-02-16T02:03:21.668Z,125.00
2023-02-16T02:05:50.174Z,129.50
2023-02-16T02:08:43.317Z,128.90
2023-02-16T02:11:19.553Z,131.00
2023-02-16T02:13:59.324Z,127.70
2023-02-16T02:16:30.635Z,124.60
2023-02-16T02:19:01.387Z,129.80
2023-02-16T02:22:15.507Z,134.40
2023-02-16T02:25:12.237Z,135.90
2023-02-16T02:27:46.089Z,130.60
2023-02-16T02:30:29.744Z,125.60
2023-02-16T02:33:15.601Z,133.00
2023-02-16T02:35:56.502Z,132.00
2023-02-16T02:38:33.330Z,129.10
2023-02-16T02:41:16.199Z,121.20
2023-02-16T02:43:51.985Z,118.80
2023-02-16T02:46:35.343Z,118.30
2023-02-16T02:49:23.462Z,119.00
2023-02-16T02:51:51.501Z,121.80
2023-02-16T02:54:42.258Z,126.50
2023-02-16T02:57:35.069Z,122.90
2023-02-16T03:00:26.638Z,128.10
2023-02-16T03:02:59.034Z,128.90
2023-02-16T03:05:28.623Z,132.10
2023-02-16T03:08:06.479Z,126.60
2023-02-16T03:10:55.185Z,139.10
2023-02-16T03:13:27.020Z,134.80
2023-02-16T03:15:57.587Z,133.60
2023-02-16T03:18:45.770Z,133.00
2023-02-16T03:21:33.306Z,130.30
2023-02-16T03:24:18.860Z,141.30
2023-02-16T03:27:04.064Z,140.10
2023-02-16T03:29:33.522Z,137.00
2023-02-16T03:32:01.910Z,135.60
2023-02-16T03:34:30.601Z,133.50
2023-02-16T03:37:00.908Z,142.40
2023-02-16T03:39:31.242Z,138.80
2023-02-16T03:41:59.299Z,135.30
2023-02-16T03:44:26.399Z,136.90
2023-02-16T03:46:53.475Z,139.20
2023-02-16T03:49:21.690Z,137.50
2023-02-16T03:51:49.158Z,136.00
2023-02-16T03:54:18.874Z,136.30
2023-02-16T03:57:00.921Z,135.50
2023-02-16T03:59:28.784Z,136.20
2023-02-16T04:01:56.361Z,137.70
2023-02-16T04:04:23.393Z,141.50
2023-02-16T04:06:50.744Z,143.10
2023-02-16T04:09:17.577Z,136.00
2023-02-16T04:12:13.347Z,141.10
2023-02-16T04:15:00.546Z,137.50
2023-02-16T04:17:48.768Z,139.70
2023-02-16T04:20:20.691Z,141.20
2023-02-16T04:22:48.497Z,136.90
2023-02-16T04:25:16.595Z,143.10
2023-02-16T04:27:56.032Z,142.50
2023-02-16T04:30:30.860Z,143.60
2023-02-16T04:33:01.210Z,138.70
2023-02-16T04:38:03.268Z,134.50
2023-02-16T04:40:49.020Z,140.40
2023-02-16T04:43:16.094Z,137.40
2023-02-16T04:45:43.101Z,136.90
2023-02-16T04:48:10.241Z,133.10
2023-02-16T04:50:40.193Z,150.00
2023-02-16T04:53:12.198Z,143.40
2023-02-16T04:55:39.388Z,137.80
2023-02-16T04:58:17.588Z,138.40
2023-02-16T05:00:45.013Z,145.50
2023-02-16T05:03:14.526Z,130.30
2023-02-16T05:05:50.625Z,109.70
2023-02-16T05:08:22.300Z,136.40
2023-02-16T05:11:08.667Z,137.20
2023-02-16T05:14:14.307Z,136.60
2023-02-16T05:17:01.892Z,137.60
2023-02-16T05:19:51.051Z,131.30
2023-02-16T05:22:22.048Z,129.50
2023-02-16T05:24:49.658Z,129.30
2023-02-16T05:27:18.496Z,132.10
2023-02-16T05:29:45.620Z,134.60
2023-02-16T05:32:12.934Z,136.00
2023-02-16T05:34:40.083Z,136.60
2023-02-16T05:37:07.945Z,134.40
2023-02-16T05:39:37.944Z,141.80
2023-02-16T05:42:14.541Z,136.90
2023-02-16T05:44:44.625Z,131.70
2023-02-16T05:47:21.771Z,131.00
2023-02-16T05:49:58.794Z,138.20
2023-02-16T05:52:28.959Z,141.80
2023-02-16T05:55:07.532Z,135.20
2023-02-16T05:57:35.819Z,136.10
2023-02-16T06:00:03.461Z,129.40
2023-02-16T06:02:40.102Z,128.40
2023-02-16T06:05:10.725Z,120.20
2023-02-16T06:07:49.017Z,123.90
2023-02-16T06:10:36.123Z,123.80
2023-02-16T06:13:08.251Z,134.90
2023-02-16T06:15:35.218Z,131.70
2023-02-16T06:18:05.575Z,123.20
2023-02-16T06:20:32.772Z,128.70
2023-02-16T06:23:20.407Z,118.20
2023-02-16T06:25:52.555Z,125.80
2023-02-16T06:28:39.931Z,123.40
2023-02-16T06:31:22.654Z,123.20
2023-02-16T06:33:53.121Z,119.10
2023-02-16T06:36:42.530Z,113.60
2023-02-16T06:39:09.988Z,112.00
2023-02-16T06:44:44.383Z,103.80
2023-02-16T06:47:22.583Z,112.50
2023-02-16T06:50:14.516Z,108.30
2023-02-16T06:53:02.031Z,103.70
2023-02-16T06:55:50.763Z,104.00
2023-02-16T06:58:38.107Z,105.70
2023-02-16T07:01:05.748Z,107.60
2023-02-16T07:03:55.342Z,100.50
2023-02-16T07:06:32.725Z,96.30
2023-02-16T07:09:00.205Z,100.20
2023-02-16T07:11:38.836Z,98.50
2023-02-16T07:14:06.137Z,93.00
2023-02-16T07:16:33.655Z,94.90
2023-02-16T07:19:01.112Z,95.40
2023-02-16T07:21:48.378Z,92.20
2023-02-16T07:24:18.272Z,92.50
2023-02-16T07:26:45.240Z,90.40
2023-02-16T07:29:15.062Z,88.10
2023-02-16T07:31:42.101Z,87.50
2023-02-16T07:34:09.347Z,85.60
2023-02-16T07:36:36.497Z,83.30
2023-02-16T07:39:03.680Z,83.60
2023-02-16T07:41:30.738Z,84.60
2023-02-16T07:44:03.803Z,81.70
2023-02-16T07:46:33.260Z,87.90
2023-02-16T07:49:09.275Z,80.30
2023-02-16T07:51:40.625Z,82.20
2023-02-16T07:54:08.205Z,79.30
2023-02-16T07:56:36.781Z,81.70
2023-02-16T07:59:24.430Z,83.20
2023-02-16T08:01:51.851Z,79.30
2023-02-16T08:04:19.203Z,77.90
2023-02-16T08:06:47.154Z,78.90
2023-02-16T08:09:14.038Z,76.70
2023-02-16T08:11:41.046Z,77.80
2023-02-16T08:14:17.493Z,77.60
2023-02-16T08:16:44.649Z,79.00
2023-02-16T08:19:13.267Z,74.90
2023-02-16T08:21:40.325Z,74.10
2023-02-16T08:24:09.536Z,74.20
2023-02-16T08:26:41.356Z,75.50
2023-02-16T08:29:12.923Z,74.30
2023-02-16T08:31:40.351Z,69.70
2023-02-16T08:34:08.093Z,69.40
2023-02-16T08:36:36.393Z,70.50
2023-02-16T08:39:05.462Z,69.20
2023-02-16T08:41:35.371Z,69.20
2023-02-16T08:44:02.697Z,73.10
2023-02-16T08:46:30.453Z,62.40
2023-02-16T08:48:59.782Z,66.40
2023-02-16T08:51:28.028Z,69.20
2023-02-16T08:53:55.991Z,67.10
2023-02-16T08:56:23.779Z,70.70
2023-02-16T08:58:51.051Z,67.20
2023-02-16T09:01:18.108Z,69.10
2023-02-16T09:03:47.382Z,70.70
2023-02-16T09:06:16.388Z,70.00
2023-02-16T09:08:44.716Z,71.90
2023-02-16T09:11:14.721Z,70.00
2023-02-16T09:13:43.401Z,67.70
2023-02-16T09:16:12.940Z,65.30
2023-02-16T09:18:45.082Z,70.40
2023-02-16T09:21:15.900Z,67.60
2023-02-16T09:23:47.530Z,65.80
2023-02-16T09:26:15.352Z,67.00
2023-02-16T09:28:43.463Z,66.10
2023-02-16T09:31:15.541Z,70.50
2023-02-16T09:33:43.736Z,67.00
2023-02-16T09:36:13.859Z,67.50
2023-02-16T09:38:41.678Z,70.50
2023-02-16T09:41:24.540Z,68.30
2023-02-16T09:43:57.364Z,67.40
2023-02-16T09:46:27.493Z,73.10
2023-02-16T09:48:55.102Z,69.10
2023-02-16T09:51:33.799Z,70.00
2023-02-16T09:54:06.874Z,69.50
2023-02-16T09:56:40.355Z,66.80
2023-02-16T09:59:14.940Z,65.40
2023-02-16T10:01:51.266Z,63.00
2023-02-16T10:04:39.060Z,67.20
2023-02-16T10:07:23.444Z,66.90
2023-02-16T10:09:55.260Z,67.90
2023-02-16T10:12:28.206Z,64.70
2023-02-16T10:14:58.043Z,64.40
2023-02-16T10:17:33.487Z,63.50
2023-02-16T10:20:10.291Z,63.80
2023-02-16T10:22:51.098Z,63.50
2023-02-16T10:25:23.376Z,66.90
2023-02-16T10:27:58.354Z,63.50
2023-02-16T10:30:28.623Z,68.70
2023-02-16T10:33:04.243Z,71.60
2023-02-16T10:35:46.656Z,65.30
2023-02-16T10:38:22.969Z,66.70
2023-02-16T10:40:56.444Z,62.50
2023-02-16T10:43:38.963Z,69.60
2023-02-16T10:46:06.734Z,65.30
2023-02-16T10:48:35.343Z,64.40
2023-02-16T10:51:07.372Z,64.50
2023-02-16T10:53:42.085Z,65.00
2023-02-16T10:56:40.049Z,61.60
2023-02-16T10:59:13.946Z,63.10
2023-02-16T11:01:45.019Z,65.80
2023-02-16T11:04:33.672Z,63.40
2023-02-16T11:07:09.908Z,61.20
2023-02-16T11:09:37.461Z,64.80
2023-02-16T11:12:15.106Z,62.70
2023-02-16T11:14:48.755Z,65.00
2023-02-16T11:17:18.738Z,59.30
2023-02-16T11:19:53.369Z,65.00
2023-02-16T11:22:32.821Z,65.10
2023-02-16T11:25:14.904Z,66.70
2023-02-16T11:27:52.826Z,62.40
2023-02-16T11:30:29.485Z,62.90
2023-02-16T11:33:23.593Z,64.20
2023-02-16T11:35:51.217Z,63.50
2023-02-16T11:38:33.180Z,60.90
2023-02-16T11:41:02.011Z,70.10
2023-02-16T11:43:33.694Z,63.70
2023-02-16T11:46:16.747Z,66.00
2023-02-16T11:48:46.470Z,64.50
2023-02-16T11:51:15.790Z,60.00
2023-02-16T11:53:44.445Z,68.20
2023-02-16T11:56:27.588Z,60.60
2023-02-16T11:59:09.059Z,61.00
2023-02-16T12:02:04.981Z,60.30
2023-02-16T12:04:45.553Z,61.10
2023-02-16T12:07:24.086Z,60.90
2023-02-16T12:09:57.172Z,58.90
2023-02-16T12:12:37.325Z,57.50
2023-02-16T12:15:22.395Z,56.60
2023-02-16T12:18:08.481Z,55.50
2023-02-16T12:20:46.802Z,58.80
2023-02-16T12:23:29.948Z,59.00
2023-02-16T12:26:11.513Z,59.10
2023-02-16T12:28:49.247Z,54.80
2023-02-16T12:31:29.569Z,59.10
2023-02-16T12:34:07.532Z,56.90
2023-02-16T12:36:52.214Z,59.50
2023-02-16T12:39:31.337Z,61.50
2023-02-16T12:42:26.378Z,57.40
2023-02-16T12:45:19.168Z,58.90
2023-02-16T12:47:51.223Z,62.00
2023-02-16T12:50:23.132Z,60.70
2023-02-16T12:52:57.084Z,57.00
2023-02-16T12:55:32.160Z,56.00
2023-02-16T12:58:09.865Z,59.30
2023-02-16T13:00:46.672Z,62.30
2023-02-16T13:03:27.410Z,59.10
2023-02-16T13:06:13.160Z,60.10
2023-02-16T13:08:58.182Z,61.80
2023-02-16T13:11:31.160Z,58.00
2023-02-16T13:14:05.131Z,65.60
2023-02-16T13:16:43.454Z,64.50
2023-02-16T13:19:15.323Z,61.70
2023-02-16T13:22:10.656Z,61.70
2023-02-16T13:24:50.503Z,61.60
2023-02-16T13:27:31.453Z,60.90
2023-02-16T13:30:38.560Z,64.60
2023-02-16T13:33:29.556Z,60.50
2023-02-16T13:36:11.620Z,59.20
2023-02-16T13:39:27.424Z,64.90
2023-02-16T13:42:22.869Z,59.50
2023-02-16T13:44:52.478Z,61.40
2023-02-16T13:47:42.431Z,65.20
2023-02-16T13:50:34.377Z,64.60
2023-02-16T13:53:17.236Z,65.30
2023-02-16T13:55:44.565Z,63.10
2023-02-16T13:58:30.804Z,61.80
2023-02-16T14:00:59.120Z,61.50
2023-02-16T14:03:40.440Z,66.60
2023-02-16T14:06:40.077Z,71.60
2023-02-16T14:09:48.850Z,65.50
2023-02-16T14:12:40.882Z,66.90
2023-02-16T14:15:19.238Z,66.90
2023-02-16T14:17:49.429Z,66.80
2023-02-16T14:20:31.283Z,75.20
2023-02-16T14:23:00.183Z,69.90
2023-02-16T14:25:39.464Z,67.60
2023-02-16T14:28:57.029Z,72.50
2023-02-16T14:31:27.318Z,71.70
2023-02-16T14:34:03.087Z,76.00
2023-02-16T14:37:17.635Z,64.80
2023-02-16T14:40:08.525Z,70.10
2023-02-16T14:42:38.144Z,75.10
2023-02-16T14:45:22.408Z,71.20
2023-02-16T14:48:24.378Z,74.40
2023-02-16T14:51:36.335Z,77.80
2023-02-16T14:54:57.512Z,73.20
2023-02-16T14:57:29.940Z,77.90
2023-02-16T15:00:01.078Z,74.70
2023-02-16T15:02:31.890Z,76.60
2023-02-16T15:05:00.085Z,73.40
2023-02-16T15:07:31.736Z,74.80
2023-02-16T15:10:00.296Z,76.10
2023-02-16T15:12:40.669Z,71.40
2023-02-16T15:15:12.157Z,68.20
2023-02-16T15:17:44.964Z,72.10
2023-02-16T15:20:22.420Z,74.00
2023-02-16T15:22:53.892Z,71.80
2023-02-16T15:25:43.158Z,69.70
2023-02-16T15:28:22.674Z,76.60
2023-02-16T15:31:00.933Z,71.80
2023-02-16T15:33:40.816Z,75.20
2023-02-16T15:36:35.562Z,74.60
2023-02-16T15:39:10.507Z,78.80
2023-02-16T15:41:40.265Z,77.00
2023-02-16T15:44:29.701Z,78.20
2023-02-16T15:47:12.078Z,75.20
2023-02-16T15:49:39.394Z,77.40
2023-02-16T15:52:29.546Z,78.50
2023-02-16T15:55:01.824Z,73.40
2023-02-16T15:57:40.815Z,76.30
2023-02-16T16:00:20.900Z,78.10
2023-02-16T16:02:54.384Z,81.80
2023-02-16T16:05:43.449Z,76.50
2023-02-16T16:08:17.559Z,83.20
2023-02-16T16:10:56.702Z,74.50
2023-02-16T16:13:29.929Z,79.80
2023-02-16T16:16:07.097Z,84.20
2023-02-16T16:18:44.348Z,76.50
2023-02-16T16:21:25.069Z,76.70
2023-02-16T16:24:05.403Z,82.10
2023-02-16T16:26:38.296Z,77.60
2023-02-16T16:29:31.882Z,84.50
2023-02-16T16:31:59.089Z,83.10
2023-02-16T16:34:47.147Z,83.40
2023-02-16T16:37:37.454Z,85.90
2023-02-16T16:40:32.178Z,81.30
2023-02-16T16:43:21.964Z,87.80
2023-02-16T16:46:20.231Z,87.50
2023-02-16T16:49:17.548Z,86.70
2023-02-16T16:51:52.801Z,87.10
2023-02-16T16:54:40.605Z,85.90
2023-02-16T16:57:29.546Z,88.80
2023-02-16T17:00:19.045Z,85.50
2023-02-16T17:02:56.239Z,87.00
2023-02-16T17:05:44.077Z,90.10
2023-02-16T17:08:31.908Z,87.70
2023-02-16T17:11:26.312Z,86.40
2023-02-16T17:13:55.128Z,89.30
2023-02-16T17:16:25.702Z,87.40
2023-02-16T17:19:03.232Z,86.80
2023-02-16T17:21:33.346Z,92.70
2023-02-16T17:24:00.459Z,88.50
2023-02-16T17:26:36.361Z,93.70
2023-02-16T17:29:11.318Z,88.10
2023-02-16T17:31:58.778Z,83.90
2023-02-16T17:34:35.878Z,89.50
2023-02-16T17:37:07.419Z,82.10
2023-02-16T17:39:34.971Z,99.40
2023-02-16T17:42:03.090Z,90.80
2023-02-16T17:44:30.110Z,93.40
2023-02-16T17:46:57.274Z,92.70
2023-02-16T17:49:24.240Z,90.00
2023-02-16T17:52:02.976Z,87.80
2023-02-16T17:54:30.478Z,92.00
2023-02-16T17:56:57.400Z,89.60
2023-02-16T17:59:24.396Z,88.10
2023-02-16T18:01:54.404Z,88.20
2023-02-16T18:04:21.376Z,88.10
2023-02-16T18:06:48.586Z,85.80
2023-02-16T18:09:23.602Z,83.90
2023-02-16T18:11:53.332Z,82.50
2023-02-16T18:14:21.346Z,87.50
2023-02-16T18:16:54.053Z,86.40
2023-02-16T18:19:21.438Z,88.00
2023-02-16T18:21:48.441Z,84.10
2023-02-16T18:24:15.438Z,87.20
2023-02-16T18:26:45.609Z,84.70
2023-02-16T18:31:58.635Z,81.50
2023-02-16T18:34:26.373Z,82.80
2023-02-16T18:36:53.615Z,83.30
2023-02-16T18:39:21.264Z,88.40
2023-02-16T18:41:48.196Z,89.60
2023-02-16T18:44:15.255Z,86.50
2023-02-16T18:46:42.674Z,85.40
2023-02-16T18:49:12.446Z,86.50
2023-02-16T18:51:39.460Z,85.60
2023-02-16T18:54:15.958Z,91.20
2023-02-16T18:56:43.104Z,79.70
2023-02-16T18:59:10.902Z,83.90
2023-02-16T19:01:38.502Z,87.20
2023-02-16T19:04:07.863Z,87.80
2023-02-16T19:06:35.025Z,87.10
2023-02-16T19:09:02.232Z,88.70
2023-02-16T19:11:30.823Z,84.00
2023-02-16T19:13:58.002Z,91.40
2023-02-16T19:16:25.878Z,86.80
2023-02-16T19:18:53.196Z,88.60
2023-02-16T19:21:20.508Z,91.30
2023-02-16T19:23:50.923Z,95.20
2023-02-16T19:26:19.086Z,96.80
2023-02-16T19:28:47.730Z,92.50
2023-02-16T19:31:21.572Z,87.80
2023-02-16T19:33:56.666Z,92.50
2023-02-16T19:36:44.878Z,91.90
2023-02-16T19:39:15.034Z,88.80
2023-02-16T19:41:56.006Z,95.30
2023-02-16T19:44:23.039Z,92.80
2023-02-16T19:46:50.240Z,96.30
2023-02-16T19:49:17.845Z,96.40
2023-02-16T19:51:47.646Z,101.20
2023-02-16T19:54:18.630Z,94.70
2023-02-16T19:56:48.490Z,91.20
2023-02-16T19:59:16.189Z,92.60
2023-02-16T20:02:03.721Z,96.00
2023-02-16T20:04:30.783Z,97.40
2023-02-16T20:06:59.998Z,102.40
2023-02-16T20:09:28.231Z,93.70
2023-02-16T20:12:15.599Z,93.30
2023-02-16T20:14:52.861Z,96.10
2023-02-16T20:17:22.959Z,102.60
2023-02-16T20:19:50.158Z,99.90
2023-02-16T20:22:37.821Z,96.20
2023-02-16T20:25:18.668Z,100.80
2023-02-16T20:27:48.884Z,99.40
2023-02-16T20:30:20.916Z,99.80
2023-02-16T20:32:59.861Z,96.70
2023-02-16T20:35:27.188Z,99.30
2023-02-16T20:37:54.331Z,101.80
2023-02-16T20:40:22.721Z,101.50
2023-02-16T20:43:09.906Z,97.90
2023-02-16T20:45:42.588Z,96.70
2023-02-16T20:48:10.604Z,97.10
2023-02-16T20:50:53.607Z,105.20
2023-02-16T20:53:20.756Z,100.70
2023-02-16T20:55:48.336Z,101.90
2023-02-16T20:58:35.947Z,100.60
2023-02-16T21:01:04.325Z,98.60
2023-02-16T21:03:49.422Z,104.50
2023-02-16T21:06:18.077Z,109.60
2023-02-16T21:08:45.259Z,104.10
2023-02-16T21:11:13.193Z,110.10
2023-02-16T21:13:43.165Z,107.70
2023-02-16T21:16:11.486Z,105.20
2023-02-16T21:18:50.388Z,110.20
2023-02-16T21:21:17.498Z,112.70
2023-02-16T21:23:56.713Z,114.40
2023-02-16T21:26:28.176Z,108.60
2023-02-16T21:29:07.310Z,108.70
2023-02-16T21:31:34.371Z,109.30
2023-02-16T21:34:14.406Z,110.50
2023-02-16T21:36:41.531Z,105.40
2023-02-16T21:39:08.895Z,111.20
2023-02-16T21:41:39.214Z,108.90
2023-02-16T21:44:08.699Z,109.70
2023-02-16T21:46:38.411Z,112.60
2023-02-16T21:49:06.676Z,115.70
2023-02-16T21:51:36.066Z,116.00
2023-02-16T21:54:43.646Z,110.40
2023-02-16T21:57:10.652Z,109.40
2023-02-16T21:59:38.314Z,113.10
2023-02-16T22:02:05.585Z,115.50
2023-02-16T22:04:33.134Z,111.90
2023-02-16T22:07:03.143Z,108.30
2023-02-16T22:09:33.363Z,108.30
2023-02-16T22:12:01.068Z,105.50
2023-02-16T22:14:48.687Z,111.40
2023-02-16T22:17:15.736Z,108.80
2023-02-16T22:20:03.758Z,112.70
2023-02-16T22:22:53.009Z,108.60
2023-02-16T22:25:20.372Z,109.70
2023-02-16T22:27:47.598Z,106.80
2023-02-16T22:33:02.913Z,107.60
2023-02-16T22:35:30.068Z,105.70
2023-02-16T22:37:57.638Z,107.30
2023-02-16T22:40:24.630Z,109.00
2023-02-16T22:42:53.934Z,104.80
2023-02-16T22:45:24.342Z,117.50
2023-02-16T22:47:54.840Z,105.40
2023-02-16T22:50:22.500Z,106.70
2023-02-16T22:52:58.702Z,102.60
2023-02-16T22:55:25.943Z,101.90
2023-02-16T22:57:56.252Z,99.70
2023-02-16T23:00:27.133Z,107.70
2023-02-16T23:03:14.404Z,102.10
2023-02-16T23:05:42.124Z,103.20
2023-02-16T23:08:12.802Z,100.90
2023-02-16T23:10:59.822Z,98.50
2023-02-16T23:13:27.569Z,100.00
2023-02-16T23:15:54.697Z,103.20
2023-02-16T23:18:22.087Z,101.60
2023-02-16T23:20:49.354Z,95.40
2023-02-16T23:23:16.681Z,95.00
2023-02-16T23:25:49.388Z,94.30
2023-02-16T23:28:19.041Z,96.60
2023-02-16T23:30:47.679Z,105.00
2023-02-16T23:33:24.236Z,102.20
2023-02-16T23:35:55.905Z,99.90
2023-02-16T23:38:30.928Z,102.70
2023-02-16T23:41:09.441Z,101.40
2023-02-16T23:43:40.588Z,99.80
2023-02-16T23:46:10.771Z,107.50
2023-02-16T23:48:45.678Z,100.90
2023-02-16T23:51:32.962Z,101.80
2023-02-16T23:54:00.367Z,100.70
2023-02-16T23:56:31.206Z,102.20
2023-02-16T23:59:02.740Z,97.10
